createdAt,value
2022-09-10T00:02:01.945Z,16.23
2022-09-10T00:04:28.618Z,16.27
2022-09-10T00:06:55.669Z,16.10
2022-09-10T00:09:25.304Z,16.13
2022-09-10T00:11:51.728Z,16.03
2022-09-10T00:14:21.300Z,15.84
2022-09-10T00:16:48.489Z,15.91
2022-09-10T00:19:15.584Z,15.96
2022-09-10T00:21:44.321Z,15.95
2022-09-10T00:24:10.834Z,15.86
2022-09-10T00:26:40.685Z,15.97
2022-09-10T00:29:09.535Z,15.85
2022-09-10T00:31:36.375Z,15.91
2022-09-10T00:34:03.845Z,15.80
2022-09-10T00:36:33.164Z,15.77
2022-09-10T00:39:02.421Z,15.39
2022-09-10T00:41:29.863Z,15.68
2022-09-10T00:44:05.249Z,15.64
2022-09-10T00:46:37.880Z,15.69
2022-09-10T00:49:17.843Z,15.67
2022-09-10T00:51:44.585Z,15.93
2022-09-10T00:54:11.372Z,15.67
2022-09-10T00:56:37.850Z,15.84
2022-09-10T00:59:04.805Z,15.99
2022-09-10T01:01:33.666Z,15.89
2022-09-10T01:04:00.761Z,16.01
2022-09-10T01:06:27.704Z,16.02
2022-09-10T01:08:54.130Z,15.92
2022-09-10T01:11:26.676Z,15.64
2022-09-10T01:14:32.349Z,15.49
2022-09-10T01:17:22.070Z,15.89
2022-09-10T01:20:16.430Z,15.89
2022-09-10T01:23:17.578Z,15.91
2022-09-10T01:26:12.610Z,15.97
2022-09-10T01:28:51.438Z,15.70
2022-09-10T01:31:33.097Z,15.71
2022-09-10T01:34:33.064Z,15.96
2022-09-10T01:37:05.593Z,16.01
2022-09-10T01:39:32.388Z,16.19
2022-09-10T01:41:58.944Z,16.34
2022-09-10T01:44:49.049Z,16.21
2022-09-10T01:47:24.632Z,16.41
2022-09-10T01:49:58.387Z,16.34
2022-09-10T01:52:42.258Z,16.32
2022-09-10T01:55:08.754Z,16.29
2022-09-10T01:57:57.611Z,16.28
2022-09-10T02:00:25.121Z,15.95
2022-09-10T02:03:14.010Z,15.71
2022-09-10T02:05:42.398Z,16.13
2022-09-10T02:08:15.904Z,16.04
2022-09-10T02:10:54.080Z,16.11
2022-09-10T02:13:22.641Z,16.42
2022-09-10T02:15:52.038Z,16.26
2022-09-10T02:18:22.360Z,16.44
2022-09-10T02:20:51.438Z,16.26
2022-09-10T02:23:21.910Z,16.48
2022-09-10T02:25:49.459Z,16.35
2022-09-10T02:28:16.254Z,16.44
2022-09-10T02:30:42.688Z,16.38
2022-09-10T02:33:09.172Z,16.30
2022-09-10T02:35:35.648Z,16.32
2022-09-10T02:38:02.153Z,16.41
2022-09-10T02:40:31.830Z,16.26
2022-09-10T02:42:58.354Z,16.41
2022-09-10T02:45:25.182Z,16.64
2022-09-10T02:47:51.714Z,16.39
2022-09-10T02:50:18.560Z,16.59
2022-09-10T02:52:51.347Z,16.65
2022-09-10T02:55:18.117Z,16.50
2022-09-10T02:57:45.411Z,16.58
2022-09-10T03:00:12.204Z,16.55
2022-09-10T03:02:38.652Z,16.52
2022-09-10T03:05:05.528Z,16.45
2022-09-10T03:07:32.482Z,16.66
2022-09-10T03:09:58.932Z,16.35
2022-09-10T03:12:25.382Z,16.39
2022-09-10T03:14:53.339Z,16.42
2022-09-10T03:17:19.840Z,16.40
2022-09-10T03:19:46.293Z,16.47
2022-09-10T03:22:12.778Z,16.42
2022-09-10T03:24:39.205Z,16.48
2022-09-10T03:27:06.876Z,16.55
2022-09-10T03:29:33.537Z,16.50
2022-09-10T03:32:01.194Z,16.64
2022-09-10T03:34:27.622Z,16.26
2022-09-10T03:36:54.549Z,16.42
2022-09-10T03:39:21.020Z,16.37
2022-09-10T03:41:47.937Z,16.37
2022-09-10T03:44:14.510Z,16.46
2022-09-10T03:46:41.348Z,16.43
2022-09-10T03:49:08.243Z,16.36
2022-09-10T03:51:35.242Z,16.48
2022-09-10T03:54:02.540Z,16.39
2022-09-10T03:56:29.010Z,16.46
2022-09-10T03:58:55.450Z,16.46
2022-09-10T04:01:21.968Z,16.50
2022-09-10T04:03:48.798Z,16.41
2022-09-10T04:06:16.346Z,16.41
2022-09-10T04:08:45.664Z,16.44
2022-09-10T04:11:13.798Z,16.54
2022-09-10T04:13:40.251Z,16.56
2022-09-10T04:16:06.941Z,16.50
2022-09-10T04:18:34.330Z,16.71
2022-09-10T04:21:00.926Z,16.49
2022-09-10T04:23:27.465Z,16.46
2022-09-10T04:25:53.938Z,16.60
2022-09-10T04:28:20.422Z,16.66
2022-09-10T04:30:47.150Z,16.57
2022-09-10T04:33:13.821Z,16.65
2022-09-10T04:35:40.279Z,16.69
2022-09-10T04:38:08.087Z,16.60
2022-09-10T04:40:34.822Z,16.66
2022-09-10T04:43:01.442Z,16.67
2022-09-10T04:45:27.933Z,16.76
2022-09-10T04:47:54.395Z,16.46
2022-09-10T04:50:21.923Z,16.71
2022-09-10T04:52:48.436Z,16.68
2022-09-10T04:55:15.656Z,16.72
2022-09-10T04:57:42.271Z,16.65
2022-09-10T05:00:09.338Z,16.58
2022-09-10T05:02:37.661Z,16.67
2022-09-10T05:05:04.438Z,16.71
2022-09-10T05:07:31.019Z,16.75
2022-09-10T05:09:57.455Z,16.78
2022-09-10T05:12:24.267Z,16.80
2022-09-10T05:14:50.724Z,16.69
2022-09-10T05:17:17.173Z,16.77
2022-09-10T05:19:43.609Z,16.74
2022-09-10T05:22:10.207Z,16.79
2022-09-10T05:24:36.828Z,16.69
2022-09-10T05:27:03.500Z,16.71
2022-09-10T05:29:29.940Z,16.92
2022-09-10T05:31:56.486Z,16.98
2022-09-10T05:34:23.024Z,16.99
2022-09-10T05:36:49.542Z,16.84
2022-09-10T05:39:16.010Z,16.94
2022-09-10T05:41:43.629Z,16.93
2022-09-10T05:44:10.050Z,16.94
2022-09-10T05:46:36.505Z,16.95
2022-09-10T05:49:02.931Z,17.07
2022-09-10T05:51:30.757Z,16.88
2022-09-10T05:53:57.739Z,17.07
2022-09-10T05:56:25.756Z,17.19
2022-09-10T05:58:52.218Z,17.25
2022-09-10T06:01:18.913Z,17.20
2022-09-10T06:03:45.443Z,17.16
2022-09-10T06:06:12.077Z,17.44
2022-09-10T06:08:40.023Z,17.38
2022-09-10T06:11:07.480Z,17.49
2022-09-10T06:13:35.409Z,17.36
2022-09-10T06:16:02.450Z,17.57
2022-09-10T06:18:29.029Z,17.81
2022-09-10T06:21:07.016Z,17.51
2022-09-10T06:23:34.023Z,17.50
2022-09-10T06:26:09.690Z,17.42
2022-09-10T06:28:36.441Z,17.84
2022-09-10T06:31:06.496Z,17.98
2022-09-10T06:33:33.422Z,17.89
2022-09-10T06:36:01.480Z,17.82
2022-09-10T06:38:30.069Z,17.83
2022-09-10T06:41:00.125Z,18.10
2022-09-10T06:43:27.582Z,18.34
2022-09-10T06:45:55.017Z,18.45
2022-09-10T06:48:40.029Z,18.50
2022-09-10T06:51:13.297Z,18.54
2022-09-10T06:53:41.142Z,18.72
2022-09-10T06:56:10.493Z,18.74
2022-09-10T06:58:37.050Z,18.96
2022-09-10T07:01:14.689Z,18.79
2022-09-10T07:03:43.502Z,19.23
2022-09-10T07:06:19.396Z,19.49
2022-09-10T07:08:45.839Z,19.39
2022-09-10T07:11:14.682Z,19.65
2022-09-10T07:13:43.035Z,19.56
2022-09-10T07:16:10.152Z,19.73
2022-09-10T07:18:37.053Z,19.91
2022-09-10T07:21:14.065Z,19.52
2022-09-10T07:23:41.240Z,19.71
2022-09-10T07:26:11.427Z,20.04
2022-09-10T07:28:38.970Z,19.77
2022-09-10T07:31:18.666Z,20.23
2022-09-10T07:33:45.775Z,20.24
2022-09-10T07:36:15.077Z,20.32
2022-09-10T07:38:42.392Z,20.01
2022-09-10T07:41:11.365Z,20.31
2022-09-10T07:43:39.210Z,20.24
2022-09-10T07:46:07.056Z,20.26
2022-09-10T07:48:34.176Z,20.25
2022-09-10T07:51:02.495Z,20.43
2022-09-10T07:53:28.952Z,19.90
2022-09-10T07:56:03.565Z,19.94
2022-09-10T07:58:31.739Z,20.34
2022-09-10T08:00:59.754Z,20.10
2022-09-10T08:03:27.507Z,20.01
2022-09-10T08:05:54.197Z,19.70
2022-09-10T08:08:21.237Z,19.96
2022-09-10T08:10:48.709Z,20.20
2022-09-10T08:13:15.703Z,20.14
2022-09-10T08:15:45.616Z,20.17
2022-09-10T08:18:13.624Z,20.00
2022-09-10T08:20:40.430Z,20.30
2022-09-10T08:23:07.628Z,20.70
2022-09-10T08:25:34.749Z,20.76
2022-09-10T08:28:01.286Z,20.82
2022-09-10T08:30:28.591Z,20.08
2022-09-10T08:32:56.176Z,20.12
2022-09-10T08:35:22.620Z,20.94
2022-09-10T08:37:49.205Z,21.08
2022-09-10T08:40:16.380Z,21.56
2022-09-10T08:42:48.197Z,21.44
2022-09-10T08:45:24.190Z,21.87
2022-09-10T08:47:59.161Z,21.04
2022-09-10T08:51:00.277Z,20.46
2022-09-10T08:53:53.870Z,20.79
2022-09-10T08:56:22.696Z,21.10
2022-09-10T08:59:04.234Z,21.03
2022-09-10T09:01:35.732Z,20.93
2022-09-10T09:04:09.872Z,21.40
2022-09-10T09:06:41.597Z,22.32
2022-09-10T09:09:14.778Z,22.00
2022-09-10T09:12:15.695Z,22.42
2022-09-10T09:14:58.926Z,22.98
2022-09-10T09:17:59.757Z,22.12
2022-09-10T09:20:52.595Z,23.34
2022-09-10T09:23:25.085Z,23.13
2022-09-10T09:25:59.219Z,23.15
2022-09-10T09:28:54.991Z,23.18
2022-09-10T09:31:31.155Z,23.34
2022-09-10T09:34:07.160Z,23.83
2022-09-10T09:36:37.882Z,23.07
2022-09-10T09:39:22.848Z,23.47
2022-09-10T09:42:09.553Z,24.14
2022-09-10T09:44:39.693Z,23.42
2022-09-10T09:47:08.362Z,23.65
2022-09-10T09:49:35.416Z,23.22
2022-09-10T09:52:06.221Z,23.53
2022-09-10T09:55:03.303Z,23.31
2022-09-10T09:57:20.938Z,23.53
2022-09-10T09:59:49.453Z,23.55
2022-09-10T10:02:24.062Z,23.78
2022-09-10T10:04:57.429Z,23.04
2022-09-10T10:07:32.571Z,22.73
2022-09-10T10:10:03.541Z,22.98
2022-09-10T10:12:33.396Z,23.19
2022-09-10T10:15:02.684Z,23.51
2022-09-10T10:17:39.289Z,22.76
2022-09-10T10:20:14.402Z,22.99
2022-09-10T10:22:42.590Z,22.93
2022-09-10T10:25:38.410Z,22.71
2022-09-10T10:28:24.105Z,21.95
2022-09-10T10:30:52.750Z,21.41
2022-09-10T10:33:25.845Z,21.57
2022-09-10T10:36:17.554Z,22.41
2022-09-10T10:38:58.048Z,23.12
2022-09-10T10:41:42.085Z,23.71
2022-09-10T10:44:17.449Z,23.25
2022-09-10T10:46:58.488Z,24.25
2022-09-10T10:49:56.046Z,22.50
2022-09-10T10:52:28.956Z,21.60
2022-09-10T10:55:17.350Z,21.41
2022-09-10T10:58:15.569Z,21.83
2022-09-10T11:01:18.160Z,21.44
2022-09-10T11:03:48.836Z,21.23
2022-09-10T11:06:20.438Z,21.49
2022-09-10T11:08:51.905Z,21.28
2022-09-10T11:11:31.699Z,21.05
2022-09-10T11:14:26.093Z,21.59
2022-09-10T11:16:58.902Z,21.28
2022-09-10T11:19:25.604Z,21.40
2022-09-10T11:22:01.239Z,21.54
2022-09-10T11:25:07.584Z,21.54
2022-09-10T11:27:38.821Z,21.63
2022-09-10T11:30:19.266Z,21.62
2022-09-10T11:32:48.744Z,21.55
2022-09-10T11:35:34.395Z,21.75
2022-09-10T11:38:07.905Z,22.60
2022-09-10T11:40:39.258Z,23.00
2022-09-10T11:43:33.157Z,23.42
2022-09-10T11:46:08.293Z,23.16
2022-09-10T11:48:42.770Z,23.30
2022-09-10T11:51:38.056Z,22.32
2022-09-10T11:54:07.294Z,21.99
2022-09-10T11:56:36.866Z,22.05
2022-09-10T11:59:19.977Z,22.29
2022-09-10T12:02:02.859Z,21.84
2022-09-10T12:04:39.362Z,21.78
2022-09-10T12:07:28.709Z,22.04
2022-09-10T12:10:14.148Z,21.82
2022-09-10T12:12:45.118Z,22.11
2022-09-10T12:15:23.088Z,22.86
2022-09-10T12:17:54.485Z,23.02
2022-09-10T12:20:27.974Z,22.90
2022-09-10T12:22:55.445Z,22.64
2022-09-10T12:25:21.848Z,22.51
2022-09-10T12:27:53.581Z,22.41
2022-09-10T12:30:33.611Z,22.74
2022-09-10T12:33:03.000Z,23.09
2022-09-10T12:35:35.462Z,23.08
2022-09-10T12:38:42.942Z,23.33
2022-09-10T12:41:14.521Z,23.38
2022-09-10T12:43:41.053Z,23.09
2022-09-10T12:46:07.931Z,23.18
2022-09-10T12:48:37.128Z,23.06
2022-09-10T12:51:13.964Z,23.15
2022-09-10T12:54:07.445Z,23.13
2022-09-10T12:56:33.978Z,23.48
2022-09-10T12:59:19.222Z,23.76
2022-09-10T13:01:47.847Z,24.00
2022-09-10T13:04:34.670Z,24.05
2022-09-10T13:07:04.807Z,24.15
2022-09-10T13:09:38.233Z,24.20
2022-09-10T13:12:18.363Z,24.08
2022-09-10T13:14:48.112Z,24.01
2022-09-10T13:17:54.452Z,23.81
2022-09-10T13:20:20.910Z,23.50
2022-09-10T13:23:06.650Z,23.90
2022-09-10T13:25:42.668Z,23.67
2022-09-10T13:28:31.365Z,23.83
2022-09-10T13:31:01.813Z,23.48
2022-09-10T13:33:34.273Z,23.44
2022-09-10T13:36:32.970Z,23.47
2022-09-10T13:39:16.021Z,23.37
2022-09-10T13:42:10.905Z,23.22
2022-09-10T13:45:09.814Z,22.71
2022-09-10T13:47:58.798Z,22.80
2022-09-10T13:50:27.961Z,22.97
2022-09-10T13:52:57.916Z,22.18
2022-09-10T13:55:29.810Z,22.51
2022-09-10T13:58:06.258Z,22.71
2022-09-10T14:00:40.187Z,22.40
2022-09-10T14:03:15.036Z,22.82
2022-09-10T14:05:52.300Z,22.69
2022-09-10T14:08:24.809Z,22.34
2022-09-10T14:11:06.514Z,22.35
2022-09-10T14:13:35.734Z,22.37
2022-09-10T14:16:04.533Z,22.23
2022-09-10T14:18:40.763Z,21.78
2022-09-10T14:21:07.285Z,22.19
2022-09-10T14:23:33.874Z,21.85
2022-09-10T14:26:15.771Z,22.10
2022-09-10T14:28:53.545Z,22.38
2022-09-10T14:31:31.669Z,22.29
2022-09-10T14:33:59.412Z,22.90
2022-09-10T14:39:14.303Z,23.03
2022-09-10T14:41:40.900Z,23.09
2022-09-10T14:44:29.764Z,23.22
2022-09-10T14:46:58.912Z,23.06
2022-09-10T14:49:30.991Z,23.69
2022-09-10T14:51:59.364Z,23.57
2022-09-10T14:54:27.566Z,23.53
2022-09-10T14:56:55.846Z,23.73
2022-09-10T14:59:36.369Z,23.56
2022-09-10T15:02:11.666Z,23.16
2022-09-10T15:04:38.946Z,23.56
2022-09-10T15:07:05.506Z,23.72
2022-09-10T15:09:31.992Z,22.95
2022-09-10T15:12:11.987Z,22.79
2022-09-10T15:14:38.933Z,22.91
2022-09-10T15:17:05.498Z,22.85
2022-09-10T15:19:32.075Z,23.10
2022-09-10T15:21:58.722Z,22.21
2022-09-10T15:24:25.982Z,21.64
2022-09-10T15:26:52.582Z,21.17
2022-09-10T15:29:19.102Z,21.41
2022-09-10T15:31:45.594Z,20.73
2022-09-10T15:34:12.295Z,20.62
2022-09-10T15:36:40.098Z,20.80
2022-09-10T15:39:08.130Z,20.66
2022-09-10T15:41:34.558Z,20.38
2022-09-10T15:44:03.562Z,20.20
2022-09-10T15:46:30.743Z,19.95
2022-09-10T15:48:58.841Z,19.84
2022-09-10T15:51:25.575Z,19.97
2022-09-10T15:53:53.135Z,19.87
2022-09-10T15:56:21.081Z,19.97
2022-09-10T15:58:52.375Z,19.82
2022-09-10T16:01:19.142Z,20.39
2022-09-10T16:03:48.013Z,20.42
2022-09-10T16:06:15.855Z,20.30
2022-09-10T16:08:42.514Z,20.25
2022-09-10T16:11:11.809Z,20.66
2022-09-10T16:13:39.755Z,20.11
2022-09-10T16:16:11.335Z,20.24
2022-09-10T16:18:38.098Z,20.26
2022-09-10T16:21:09.355Z,20.17
2022-09-10T16:23:37.476Z,20.06
2022-09-10T16:26:06.033Z,19.67
2022-09-10T16:28:33.877Z,19.54
2022-09-10T16:31:15.360Z,19.78
2022-09-10T16:33:42.798Z,19.59
2022-09-10T16:36:10.966Z,19.75
2022-09-10T16:38:37.805Z,19.80
2022-09-10T16:47:45.178Z,19.80
2022-09-10T16:50:20.187Z,19.66
2022-09-10T16:52:49.140Z,19.80
2022-09-10T16:55:16.316Z,19.68
2022-09-10T16:57:42.799Z,19.74
2022-09-10T17:00:11.125Z,20.07
2022-09-10T17:02:37.777Z,19.94
2022-09-10T17:05:05.083Z,20.06
2022-09-10T17:07:31.922Z,19.73
2022-09-10T17:10:00.844Z,19.91
2022-09-10T17:12:28.235Z,19.87
2022-09-10T17:14:54.664Z,20.23
2022-09-10T17:17:21.150Z,19.89
2022-09-10T17:19:47.717Z,19.54
2022-09-10T17:22:14.179Z,19.45
2022-09-10T17:24:41.176Z,19.85
2022-09-10T17:27:07.629Z,19.91
2022-09-10T17:29:34.221Z,20.06
2022-09-10T17:32:00.690Z,19.79
2022-09-10T17:34:28.141Z,19.78
2022-09-10T17:36:54.861Z,19.76
2022-09-10T17:39:21.392Z,19.85
2022-09-10T17:41:48.416Z,20.10
2022-09-10T17:44:16.662Z,20.19
2022-09-10T17:46:43.288Z,19.88
2022-09-10T17:49:12.968Z,19.77
2022-09-10T17:51:39.756Z,19.53
2022-09-10T17:54:07.266Z,19.39
2022-09-10T17:56:34.070Z,19.42
2022-09-10T17:59:02.967Z,19.80
2022-09-10T18:01:36.441Z,19.51
2022-09-10T18:04:04.152Z,19.82
2022-09-10T18:06:32.312Z,19.72
2022-09-10T18:09:00.460Z,19.65
2022-09-10T18:11:40.565Z,19.57
2022-09-10T18:14:08.395Z,19.53
2022-09-10T18:16:36.334Z,19.52
2022-09-10T18:19:12.917Z,19.44
2022-09-10T18:21:41.446Z,19.12
2022-09-10T18:24:23.683Z,19.39
2022-09-10T18:26:52.094Z,19.38
2022-09-10T18:29:27.825Z,19.47
2022-09-10T18:31:56.601Z,19.31
2022-09-10T18:34:26.999Z,19.84
2022-09-10T18:36:56.556Z,19.55
2022-09-10T18:39:24.246Z,19.87
2022-09-10T18:41:52.182Z,19.80
2022-09-10T18:44:21.771Z,19.42
2022-09-10T18:46:49.731Z,19.10
2022-09-10T18:49:21.203Z,19.08
2022-09-10T18:51:48.531Z,19.06
2022-09-10T18:54:16.489Z,18.92
2022-09-10T18:56:44.859Z,18.86
2022-09-10T18:59:13.061Z,19.11
2022-09-10T19:01:43.181Z,18.88
2022-09-10T19:04:11.329Z,18.88
2022-09-10T19:06:40.812Z,18.66
2022-09-10T19:09:09.883Z,18.86
2022-09-10T19:11:38.967Z,18.84
2022-09-10T19:14:13.381Z,18.83
2022-09-10T19:16:41.358Z,19.07
2022-09-10T19:19:08.308Z,18.95
2022-09-10T19:21:38.386Z,19.18
2022-09-10T19:24:04.938Z,19.14
2022-09-10T19:26:33.585Z,18.93
2022-09-10T19:29:01.671Z,18.85
2022-09-10T19:31:30.105Z,19.04
2022-09-10T19:34:01.789Z,18.89
2022-09-10T19:36:30.841Z,18.81
2022-09-10T19:38:57.838Z,18.81
2022-09-10T19:41:25.549Z,18.79
2022-09-10T19:43:53.846Z,18.64
2022-09-10T19:46:21.890Z,18.38
2022-09-10T19:48:48.694Z,18.44
2022-09-10T19:51:17.467Z,18.63
2022-09-10T19:53:43.971Z,18.71
2022-09-10T19:56:18.306Z,18.52
2022-09-10T19:58:49.711Z,18.58
2022-09-10T20:01:23.865Z,18.56
2022-09-10T20:03:51.006Z,18.58
2022-09-10T20:06:19.364Z,18.65
2022-09-10T20:08:50.679Z,18.47
2022-09-10T20:11:22.858Z,18.66
2022-09-10T20:13:50.059Z,18.52
2022-09-10T20:16:17.085Z,18.64
2022-09-10T20:18:43.630Z,18.48
2022-09-10T20:21:16.165Z,18.47
2022-09-10T20:23:47.553Z,18.42
2022-09-10T20:26:16.693Z,18.26
2022-09-10T20:28:43.606Z,18.11
2022-09-10T20:31:12.021Z,18.17
2022-09-10T20:33:40.261Z,18.09
2022-09-10T20:36:11.067Z,18.16
2022-09-10T20:38:38.265Z,18.13
2022-09-10T20:41:05.802Z,18.06
2022-09-10T20:43:32.595Z,18.08
2022-09-10T20:45:59.127Z,17.91
2022-09-10T20:48:25.779Z,17.93
2022-09-10T20:50:57.920Z,18.02
2022-09-10T20:53:25.090Z,17.85
2022-09-10T20:55:51.624Z,17.74
2022-09-10T20:58:18.825Z,17.75
2022-09-10T21:00:45.554Z,17.69
2022-09-10T21:03:12.706Z,17.87
2022-09-10T21:05:39.417Z,17.73
2022-09-10T21:08:06.223Z,17.58
2022-09-10T21:10:37.337Z,17.70
2022-09-10T21:13:04.761Z,17.71
2022-09-10T21:15:31.428Z,17.72
2022-09-10T21:17:58.463Z,17.60
2022-09-10T21:20:25.036Z,17.34
2022-09-10T21:22:51.531Z,17.44
2022-09-10T21:25:19.193Z,17.57
2022-09-10T21:27:46.885Z,17.35
2022-09-10T21:30:13.508Z,17.51
2022-09-10T21:32:40.582Z,17.50
2022-09-10T21:35:07.482Z,17.59
2022-09-10T21:37:33.982Z,17.71
2022-09-10T21:40:01.142Z,17.68
2022-09-10T21:42:28.269Z,17.62
2022-09-10T21:44:54.781Z,17.44
2022-09-10T21:47:21.364Z,17.45
2022-09-10T21:49:48.451Z,17.55
2022-09-10T21:52:15.181Z,17.47
2022-09-10T21:54:41.909Z,17.35
2022-09-10T21:57:10.963Z,17.16
2022-09-10T21:59:37.576Z,17.16
2022-09-10T22:02:08.099Z,17.24
2022-09-10T22:04:34.922Z,17.58
2022-09-10T22:07:04.675Z,17.26
2022-09-10T22:09:32.078Z,17.35
2022-09-10T22:11:59.202Z,17.59
2022-09-10T22:14:25.975Z,17.44
2022-09-10T22:16:52.639Z,17.44
2022-09-10T22:19:22.426Z,17.58
2022-09-10T22:21:49.185Z,17.51
2022-09-10T22:24:18.518Z,17.57
2022-09-10T22:26:45.470Z,17.41
2022-09-10T22:29:12.663Z,17.34
2022-09-10T22:31:39.161Z,17.12
2022-09-10T22:34:08.401Z,17.10
2022-09-10T22:36:39.545Z,17.15
2022-09-10T22:39:14.633Z,17.12
2022-09-10T22:41:41.904Z,16.92
2022-09-10T22:44:09.001Z,16.84
2022-09-10T22:46:36.433Z,16.91
2022-09-10T22:49:04.369Z,16.94
2022-09-10T22:51:35.104Z,16.90
2022-09-10T22:54:02.804Z,16.84
2022-09-10T22:56:29.694Z,16.58
2022-09-10T22:58:57.928Z,16.63
2022-09-10T23:01:29.668Z,16.78
2022-09-10T23:04:00.424Z,16.79
2022-09-10T23:06:29.151Z,16.82
2022-09-10T23:08:58.111Z,16.76
2022-09-10T23:11:27.030Z,16.60
2022-09-10T23:13:59.417Z,16.53
2022-09-10T23:16:34.484Z,16.41
2022-09-10T23:19:03.977Z,16.49
2022-09-10T23:21:31.930Z,16.63
2022-09-10T23:24:00.629Z,16.48
2022-09-10T23:26:27.412Z,16.45
2022-09-10T23:28:54.767Z,16.66
2022-09-10T23:31:26.122Z,16.75
2022-09-10T23:34:00.680Z,16.76
2022-09-10T23:36:29.975Z,16.86
2022-09-10T23:38:57.683Z,16.61
2022-09-10T23:41:25.909Z,16.72
2022-09-10T23:43:52.390Z,16.75
2022-09-10T23:46:18.915Z,16.66
2022-09-10T23:48:46.358Z,16.48
2022-09-10T23:51:14.162Z,16.38
2022-09-10T23:53:40.685Z,16.34
2022-09-10T23:56:07.285Z,16.56
2022-09-10T23:58:33.732Z,16.38
